createdAt,value
2018-08-28T00:01:07.503Z,78.50
2018-08-28T00:03:35.594Z,78.80
2018-08-28T00:06:04.003Z,78.90
2018-08-28T00:08:32.139Z,78.90
2018-08-28T00:11:00.194Z,78.90
2018-08-28T00:13:28.298Z,78.90
2018-08-28T00:15:56.339Z,79.00
2018-08-28T00:18:24.375Z,79.10
2018-08-28T00:20:52.501Z,79.00
2018-08-28T00:23:20.601Z,79.20
2018-08-28T00:25:48.742Z,78.90
2018-08-28T00:28:17.018Z,79.10
2018-08-28T00:30:45.103Z,79.00
2018-08-28T00:33:13.153Z,79.00
2018-08-28T00:35:41.336Z,79.00
2018-08-28T00:38:09.410Z,79.30
2018-08-28T00:40:37.479Z,79.40
2018-08-28T00:43:05.567Z,79.70
2018-08-28T00:45:33.736Z,80.90
2018-08-28T00:48:02.026Z,80.90
2018-08-28T00:50:30.097Z,80.10
2018-08-28T00:52:58.246Z,80.30
2018-08-28T00:55:26.468Z,80.30
2018-08-28T00:57:54.803Z,79.70
2018-08-28T01:00:23.020Z,80.30
2018-08-28T01:02:51.254Z,80.70
2018-08-28T01:05:20.152Z,80.50
2018-08-28T01:07:48.419Z,81.70
2018-08-28T01:10:16.499Z,80.90
2018-08-28T01:12:44.674Z,81.10
2018-08-28T01:15:12.787Z,81.70
2018-08-28T01:17:40.812Z,81.40
2018-08-28T01:20:09.127Z,81.40
2018-08-28T01:22:37.291Z,81.50
2018-08-28T01:25:05.676Z,81.60
2018-08-28T01:27:33.711Z,81.50
2018-08-28T01:30:01.887Z,81.70
2018-08-28T01:32:29.971Z,81.80
2018-08-28T01:34:58.024Z,81.90
2018-08-28T01:37:26.139Z,82.00
2018-08-28T01:39:54.299Z,81.90
2018-08-28T01:42:23.899Z,81.80
2018-08-28T01:44:51.998Z,81.90
2018-08-28T01:47:21.089Z,82.00
2018-08-28T01:49:49.740Z,81.80
2018-08-28T01:52:17.810Z,81.90
2018-08-28T01:54:45.904Z,81.90
2018-08-28T01:57:14.081Z,81.80
2018-08-28T01:59:42.155Z,81.80
2018-08-28T02:02:10.323Z,81.90
2018-08-28T02:04:38.415Z,81.80
2018-08-28T02:07:06.571Z,81.70
2018-08-28T02:09:34.666Z,82.00
2018-08-28T02:12:03.027Z,82.10
2018-08-28T02:14:31.075Z,82.20
2018-08-28T02:16:59.095Z,82.10
2018-08-28T02:19:27.260Z,82.50
2018-08-28T02:21:55.411Z,82.30
2018-08-28T02:24:23.511Z,82.40
2018-08-28T02:26:51.652Z,82.80
2018-08-28T02:29:19.831Z,83.10
2018-08-28T02:31:47.902Z,83.20
2018-08-28T02:34:15.979Z,83.30
2018-08-28T02:36:44.095Z,83.30
2018-08-28T02:39:12.415Z,83.50
2018-08-28T02:41:41.228Z,83.60
2018-08-28T02:44:09.308Z,83.60
2018-08-28T02:46:38.063Z,84.00
2018-08-28T02:49:06.575Z,83.80
2018-08-28T02:51:35.227Z,83.70
2018-08-28T02:54:03.354Z,83.70
2018-08-28T02:56:31.518Z,83.70
2018-08-28T02:58:59.656Z,83.70
2018-08-28T03:01:27.937Z,83.70
2018-08-28T03:03:56.027Z,83.60
2018-08-28T03:06:24.303Z,83.40
2018-08-28T03:08:52.364Z,83.70
2018-08-28T03:11:20.468Z,83.60
2018-08-28T03:13:48.613Z,83.70
2018-08-28T03:16:16.693Z,83.70
2018-08-28T03:18:44.927Z,83.90
2018-08-28T03:21:13.039Z,84.00
2018-08-28T03:23:41.131Z,84.20
2018-08-28T03:26:09.664Z,84.40
2018-08-28T03:28:37.964Z,84.30
2018-08-28T03:31:06.092Z,84.50
2018-08-28T03:33:34.210Z,84.90
2018-08-28T03:36:02.281Z,84.80
2018-08-28T03:38:30.556Z,84.90
2018-08-28T03:40:58.628Z,84.90
2018-08-28T03:43:26.698Z,85.00
2018-08-28T03:45:54.963Z,85.10
2018-08-28T03:48:23.013Z,85.30
2018-08-28T03:50:51.324Z,85.50
2018-08-28T03:53:19.602Z,85.50
2018-08-28T03:55:47.671Z,85.60
2018-08-28T03:58:15.743Z,85.90
2018-08-28T04:00:43.823Z,86.00
2018-08-28T04:03:11.863Z,86.10
2018-08-28T04:05:40.086Z,86.30
2018-08-28T04:08:08.259Z,86.30
2018-08-28T04:10:36.307Z,87.00
2018-08-28T04:13:04.407Z,86.30
2018-08-28T04:15:32.551Z,86.30
2018-08-28T04:18:00.620Z,86.40
2018-08-28T04:20:28.717Z,86.00
2018-08-28T04:22:56.788Z,86.90
2018-08-28T04:25:24.899Z,86.80
2018-08-28T04:27:53.028Z,86.90
2018-08-28T04:30:21.148Z,87.00
2018-08-28T04:32:49.170Z,86.70
2018-08-28T04:35:17.343Z,86.50
2018-08-28T04:37:45.423Z,86.50
2018-08-28T04:40:14.327Z,86.40
2018-08-28T04:42:42.476Z,85.70
2018-08-28T04:45:10.547Z,85.70
2018-08-28T04:47:38.609Z,85.60
2018-08-28T04:50:06.660Z,85.80
2018-08-28T04:52:34.988Z,86.30
2018-08-28T04:55:03.093Z,85.70
2018-08-28T04:57:31.128Z,86.10
2018-08-28T04:59:59.191Z,85.30
2018-08-28T05:02:32.695Z,85.30
2018-08-28T05:05:01.075Z,85.30
2018-08-28T05:07:29.342Z,85.00
2018-08-28T05:09:57.423Z,85.10
2018-08-28T05:12:25.503Z,85.30
2018-08-28T05:14:53.567Z,84.70
2018-08-28T05:17:21.797Z,84.40
2018-08-28T05:19:49.995Z,84.40
2018-08-28T05:22:18.084Z,83.70
2018-08-28T05:24:46.135Z,83.60
2018-08-28T05:27:14.246Z,83.60
2018-08-28T05:29:42.386Z,83.60
2018-08-28T05:32:10.496Z,82.90
2018-08-28T05:34:38.551Z,83.50
2018-08-28T05:37:06.895Z,82.90
2018-08-28T05:39:35.074Z,83.50
2018-08-28T05:42:03.175Z,83.60
2018-08-28T05:44:31.255Z,83.00
2018-08-28T05:46:59.318Z,83.50
2018-08-28T05:49:27.439Z,83.50
2018-08-28T05:51:55.486Z,84.60
2018-08-28T05:54:23.572Z,84.10
2018-08-28T05:56:51.697Z,84.20
2018-08-28T05:59:19.772Z,84.20
2018-08-28T06:01:47.861Z,85.00
2018-08-28T06:04:15.929Z,85.20
2018-08-28T06:06:44.013Z,86.10
2018-08-28T06:09:13.011Z,86.50
2018-08-28T06:11:41.059Z,86.60
2018-08-28T06:14:09.652Z,86.30
2018-08-28T06:16:37.698Z,86.70
2018-08-28T06:19:05.795Z,85.80
2018-08-28T06:21:33.859Z,86.20
2018-08-28T06:24:01.936Z,85.80
2018-08-28T06:26:30.036Z,85.20
2018-08-28T06:28:58.120Z,85.30
2018-08-28T06:31:26.250Z,85.80
2018-08-28T06:33:54.437Z,86.20
2018-08-28T06:36:22.500Z,85.20
2018-08-28T06:38:50.592Z,84.80
2018-08-28T06:41:18.657Z,84.20
2018-08-28T06:43:46.766Z,83.50
2018-08-28T06:46:14.791Z,82.80
2018-08-28T06:48:42.877Z,80.60
2018-08-28T06:51:10.932Z,78.90
2018-08-28T06:53:39.045Z,76.90
2018-08-28T06:56:07.187Z,76.70
2018-08-28T06:58:35.251Z,76.90
2018-08-28T07:01:03.337Z,77.60
2018-08-28T07:03:31.389Z,78.40
2018-08-28T07:05:59.460Z,78.30
2018-08-28T07:08:27.544Z,78.30
2018-08-28T07:10:55.591Z,78.40
2018-08-28T07:13:23.665Z,76.50
2018-08-28T07:15:51.763Z,77.10
2018-08-28T07:18:19.823Z,76.70
2018-08-28T07:20:47.894Z,75.80
2018-08-28T07:23:15.980Z,75.80
2018-08-28T07:25:44.141Z,75.20
2018-08-28T07:28:12.215Z,75.50
2018-08-28T07:30:40.297Z,75.20
2018-08-28T07:33:08.349Z,75.00
2018-08-28T07:35:36.437Z,74.90
2018-08-28T07:38:04.605Z,75.00
2018-08-28T07:40:32.676Z,75.70
2018-08-28T07:43:00.882Z,75.30
2018-08-28T07:45:28.812Z,74.90
2018-08-28T07:47:56.887Z,74.20
2018-08-28T07:50:24.980Z,73.60
2018-08-28T07:52:53.030Z,73.90
2018-08-28T07:55:21.092Z,73.80
2018-08-28T07:57:49.171Z,72.30
2018-08-28T08:00:17.233Z,70.80
2018-08-28T08:02:45.318Z,70.60
2018-08-28T08:05:13.399Z,69.50
2018-08-28T08:07:41.476Z,68.80
2018-08-28T08:10:09.562Z,68.40
2018-08-28T08:12:37.640Z,67.60
2018-08-28T08:15:05.891Z,68.50
2018-08-28T08:17:33.943Z,70.30
2018-08-28T08:20:02.036Z,71.60
2018-08-28T08:22:30.140Z,69.60
2018-08-28T08:24:58.283Z,70.80
2018-08-28T08:27:26.368Z,68.10
2018-08-28T08:29:54.443Z,68.90
2018-08-28T08:32:22.480Z,66.50
2018-08-28T08:34:50.592Z,66.20
2018-08-28T08:37:18.650Z,63.10
2018-08-28T08:39:46.751Z,65.00
2018-08-28T08:42:14.906Z,66.10
2018-08-28T08:44:42.935Z,66.70
2018-08-28T08:47:11.028Z,67.40
2018-08-28T08:49:39.211Z,63.80
2018-08-28T08:52:07.293Z,63.10
2018-08-28T08:54:35.379Z,63.60
2018-08-28T08:57:03.535Z,62.50
2018-08-28T08:59:31.604Z,62.30
2018-08-28T09:01:59.691Z,63.90
2018-08-28T09:04:27.852Z,64.80
2018-08-28T09:06:55.923Z,67.30
2018-08-28T09:09:24.019Z,67.50
2018-08-28T09:11:52.175Z,67.20
2018-08-28T09:14:20.231Z,65.70
2018-08-28T09:16:48.349Z,66.90
2018-08-28T09:19:16.512Z,68.10
2018-08-28T09:21:44.566Z,65.90
2018-08-28T09:24:12.638Z,63.90
2018-08-28T09:26:40.771Z,63.10
2018-08-28T09:29:08.895Z,63.60
2018-08-28T09:31:37.004Z,62.50
2018-08-28T09:34:05.040Z,61.00
2018-08-28T09:36:33.061Z,60.00
2018-08-28T09:39:01.202Z,58.90
2018-08-28T09:41:29.335Z,58.70
2018-08-28T09:43:57.521Z,57.20
2018-08-28T09:46:25.604Z,55.80
2018-08-28T09:48:53.684Z,54.60
2018-08-28T09:51:21.846Z,55.80
2018-08-28T09:53:49.898Z,55.60
2018-08-28T09:56:18.078Z,55.10
2018-08-28T09:58:46.147Z,55.40
2018-08-28T10:01:19.715Z,53.90
2018-08-28T10:03:47.919Z,54.60
2018-08-28T10:06:16.023Z,54.10
2018-08-28T10:08:44.094Z,52.60
2018-08-28T10:11:12.135Z,51.00
2018-08-28T10:13:40.258Z,47.90
2018-08-28T10:16:08.487Z,45.60
2018-08-28T10:18:36.559Z,44.90
2018-08-28T10:21:04.780Z,45.60
2018-08-28T10:23:32.944Z,46.60
2018-08-28T10:26:01.161Z,48.50
2018-08-28T10:28:29.393Z,50.60
2018-08-28T10:30:57.579Z,51.30
2018-08-28T10:33:25.803Z,47.80
2018-08-28T10:35:53.956Z,49.10
2018-08-28T10:38:22.153Z,49.70
2018-08-28T10:40:50.253Z,48.90
2018-08-28T10:43:18.329Z,44.80
2018-08-28T10:45:46.482Z,43.00
2018-08-28T10:48:14.539Z,40.40
2018-08-28T10:50:42.766Z,41.00
2018-08-28T10:53:10.979Z,42.20
2018-08-28T10:55:39.087Z,40.30
2018-08-28T10:58:07.168Z,42.00
2018-08-28T11:00:35.391Z,44.10
2018-08-28T11:03:03.531Z,47.40
2018-08-28T11:05:32.039Z,48.50
2018-08-28T11:08:00.191Z,47.50
2018-08-28T11:10:28.373Z,46.90
2018-08-28T11:12:56.533Z,48.00
2018-08-28T11:15:24.682Z,48.70
2018-08-28T11:17:52.797Z,49.20
2018-08-28T11:20:20.993Z,49.00
2018-08-28T11:22:49.199Z,49.10
2018-08-28T11:25:17.287Z,48.00
2018-08-28T11:27:45.723Z,47.80
2018-08-28T11:30:13.862Z,44.20
2018-08-28T11:32:41.948Z,41.90
2018-08-28T11:35:10.144Z,39.00
2018-08-28T11:37:38.380Z,39.30
2018-08-28T11:40:06.585Z,41.00
2018-08-28T11:42:34.684Z,41.20
2018-08-28T11:45:02.856Z,41.80
2018-08-28T11:47:31.081Z,41.70
2018-08-28T11:49:59.157Z,41.30
2018-08-28T11:52:27.402Z,41.00
2018-08-28T11:54:55.512Z,44.50
2018-08-28T11:57:23.621Z,45.80
2018-08-28T11:59:51.720Z,46.50
2018-08-28T12:02:19.873Z,47.00
2018-08-28T12:04:48.070Z,43.50
2018-08-28T12:07:16.171Z,42.30
2018-08-28T12:09:44.333Z,41.90
2018-08-28T12:12:12.440Z,41.30
2018-08-28T12:14:40.589Z,41.40
2018-08-28T12:17:08.775Z,40.10
2018-08-28T12:19:37.050Z,39.10
2018-08-28T12:22:05.134Z,40.90
2018-08-28T12:24:33.308Z,41.00
2018-08-28T12:27:01.472Z,38.70
2018-08-28T12:29:29.780Z,40.10
2018-08-28T12:31:57.875Z,41.00
2018-08-28T12:34:25.980Z,41.20
2018-08-28T12:36:54.249Z,42.00
2018-08-28T12:39:22.369Z,41.00
2018-08-28T12:41:50.483Z,41.10
2018-08-28T12:44:18.691Z,42.20
2018-08-28T12:46:48.070Z,43.30
2018-08-28T12:49:16.144Z,41.60
2018-08-28T12:51:44.250Z,42.30
2018-08-28T12:54:12.424Z,42.00
2018-08-28T12:56:40.586Z,39.30
2018-08-28T12:59:08.765Z,38.30
2018-08-28T13:01:36.937Z,38.40
2018-08-28T13:04:05.336Z,39.80
2018-08-28T13:06:33.461Z,42.60
2018-08-28T13:09:01.503Z,43.20
2018-08-28T13:11:29.585Z,43.50
2018-08-28T13:13:57.687Z,42.80
2018-08-28T13:16:25.913Z,43.30
2018-08-28T13:18:54.164Z,43.40
2018-08-28T13:21:22.240Z,42.00
2018-08-28T13:23:50.394Z,42.00
2018-08-28T13:26:18.451Z,42.00
2018-08-28T13:28:47.440Z,42.00
2018-08-28T13:31:16.575Z,41.90
2018-08-28T13:33:44.859Z,40.30
2018-08-28T13:36:13.016Z,37.30
2018-08-28T13:38:41.217Z,37.20
2018-08-28T13:41:09.385Z,36.10
2018-08-28T13:43:37.541Z,36.00
2018-08-28T13:46:05.819Z,35.80
2018-08-28T13:48:34.029Z,36.10
2018-08-28T13:51:02.193Z,35.60
2018-08-28T13:53:30.413Z,35.70
2018-08-28T13:55:58.612Z,35.10
2018-08-28T13:58:27.017Z,35.40
2018-08-28T14:00:55.272Z,36.00
2018-08-28T14:03:23.583Z,34.90
2018-08-28T14:05:51.790Z,36.20
2018-08-28T14:08:20.106Z,35.30
2018-08-28T14:10:48.247Z,38.00
2018-08-28T14:13:16.389Z,37.70
2018-08-28T14:15:44.628Z,36.90
2018-08-28T14:18:12.817Z,36.20
2018-08-28T14:20:41.072Z,35.20
2018-08-28T14:23:09.398Z,36.00
2018-08-28T14:25:40.031Z,35.40
2018-08-28T14:28:09.477Z,35.60
2018-08-28T14:30:37.697Z,35.20
2018-08-28T14:34:09.234Z,36.20
2018-08-28T14:36:37.416Z,36.70
2018-08-28T14:39:06.515Z,37.50
2018-08-28T14:41:34.727Z,36.30
2018-08-28T14:44:02.813Z,36.50
2018-08-28T14:46:30.997Z,36.30
2018-08-28T14:48:59.306Z,37.30
2018-08-28T14:51:27.456Z,37.50
2018-08-28T14:53:55.855Z,37.00
2018-08-28T14:56:24.094Z,36.90
2018-08-28T14:58:52.216Z,36.60
2018-08-28T15:01:20.353Z,38.90
2018-08-28T15:03:48.532Z,38.50
2018-08-28T15:06:17.334Z,39.00
2018-08-28T15:08:46.572Z,38.90
2018-08-28T15:11:16.349Z,38.10
2018-08-28T15:13:45.003Z,39.20
2018-08-28T15:16:13.078Z,39.10
2018-08-28T15:18:41.784Z,40.20
2018-08-28T15:21:09.948Z,39.20
2018-08-28T15:23:37.988Z,37.50
2018-08-28T15:26:06.108Z,36.70
2018-08-28T15:28:34.265Z,37.70
2018-08-28T15:31:02.362Z,37.70
2018-08-28T15:33:30.576Z,38.90
2018-08-28T15:35:58.896Z,37.80
2018-08-28T15:38:26.989Z,37.80
2018-08-28T15:40:55.348Z,38.90
2018-08-28T15:43:23.411Z,39.50
2018-08-28T15:45:51.465Z,40.20
2018-08-28T15:48:19.589Z,39.30
2018-08-28T15:50:47.767Z,39.00
2018-08-28T15:53:15.936Z,40.00
2018-08-28T15:55:44.088Z,40.10
2018-08-28T15:58:12.285Z,40.90
2018-08-28T16:00:40.481Z,40.40
2018-08-28T16:03:08.616Z,40.40
2018-08-28T16:05:36.823Z,42.10
2018-08-28T16:08:05.421Z,42.50
2018-08-28T16:10:33.579Z,42.10
2018-08-28T16:13:01.780Z,42.10
2018-08-28T16:15:29.983Z,41.40
2018-08-28T16:17:58.117Z,40.90
2018-08-28T16:20:26.289Z,40.70
2018-08-28T16:22:56.860Z,41.00
2018-08-28T16:25:25.053Z,40.50
2018-08-28T16:27:53.368Z,40.90
2018-08-28T16:30:21.821Z,42.00
2018-08-28T16:32:50.093Z,42.20
2018-08-28T16:35:18.255Z,42.50
2018-08-28T16:37:46.656Z,43.40
2018-08-28T16:40:14.880Z,43.70
2018-08-28T16:42:43.097Z,44.00
2018-08-28T16:45:11.344Z,44.50
2018-08-28T16:47:39.460Z,44.80
2018-08-28T16:50:07.661Z,46.00
2018-08-28T16:52:35.839Z,45.70
2018-08-28T16:55:04.078Z,46.80
2018-08-28T16:57:32.292Z,47.00
2018-08-28T17:00:00.425Z,46.50
2018-08-28T17:02:28.591Z,46.20
2018-08-28T17:04:56.693Z,46.90
2018-08-28T17:07:24.834Z,47.30
2018-08-28T17:09:53.020Z,48.20
2018-08-28T17:12:21.271Z,48.50
2018-08-28T17:14:49.419Z,48.50
2018-08-28T17:17:17.576Z,49.00
2018-08-28T17:19:45.752Z,48.70
2018-08-28T17:22:14.093Z,49.50
2018-08-28T17:24:42.483Z,49.50
2018-08-28T17:27:11.608Z,50.10
2018-08-28T17:29:40.414Z,50.00
2018-08-28T17:32:08.585Z,50.80
2018-08-28T17:34:36.736Z,50.90
2018-08-28T17:37:05.228Z,51.10
2018-08-28T17:39:33.883Z,51.40
2018-08-28T17:42:02.068Z,52.10
2018-08-28T17:44:30.238Z,51.70
2018-08-28T17:46:58.480Z,52.70
2018-08-28T17:49:26.712Z,52.90
2018-08-28T17:51:54.888Z,53.00
2018-08-28T17:54:23.091Z,53.10
2018-08-28T17:56:51.282Z,53.80
2018-08-28T17:59:19.406Z,53.70
2018-08-28T18:01:47.583Z,54.30
2018-08-28T18:04:15.641Z,54.60
2018-08-28T18:06:44.960Z,54.40
2018-08-28T18:09:13.137Z,55.40
2018-08-28T18:11:41.284Z,55.00
2018-08-28T18:14:09.453Z,55.00
2018-08-28T18:16:37.667Z,55.40
2018-08-28T18:19:05.861Z,55.30
2018-08-28T18:21:34.025Z,55.60
2018-08-28T18:24:02.195Z,56.00
2018-08-28T18:26:30.364Z,56.20
2018-08-28T18:28:58.809Z,55.60
2018-08-28T18:31:26.955Z,55.80
2018-08-28T18:33:55.112Z,56.90
2018-08-28T18:36:23.301Z,57.10
2018-08-28T18:38:51.440Z,57.10
2018-08-28T18:41:19.696Z,57.10
2018-08-28T18:43:48.269Z,57.50
2018-08-28T18:46:16.399Z,57.90
2018-08-28T18:48:44.576Z,57.70
2018-08-28T18:51:12.729Z,58.90
2018-08-28T18:53:40.828Z,58.50
2018-08-28T18:56:08.951Z,58.80
2018-08-28T18:58:37.068Z,58.90
2018-08-28T19:01:05.370Z,59.00
2018-08-28T19:03:33.448Z,58.90
2018-08-28T19:06:01.571Z,59.20
2018-08-28T19:08:29.740Z,59.30
2018-08-28T19:10:57.859Z,59.40
2018-08-28T19:13:26.046Z,60.00
2018-08-28T19:15:54.308Z,60.50
2018-08-28T19:18:22.393Z,61.10
2018-08-28T19:20:50.655Z,61.00
2018-08-28T19:23:18.852Z,61.00
2018-08-28T19:25:47.028Z,61.60
2018-08-28T19:28:15.300Z,61.70
2018-08-28T19:30:43.575Z,62.20
2018-08-28T19:33:11.781Z,62.80
2018-08-28T19:35:40.027Z,62.60
2018-08-28T19:38:08.625Z,63.30
2018-08-28T19:40:36.826Z,63.40
2018-08-28T19:43:05.040Z,63.60
2018-08-28T19:45:33.195Z,63.90
2018-08-28T19:48:01.369Z,64.20
2018-08-28T19:50:29.600Z,64.60
2018-08-28T19:52:57.776Z,64.60
2018-08-28T19:55:26.002Z,64.50
2018-08-28T19:57:54.141Z,65.00
2018-08-28T20:00:22.283Z,65.10
2018-08-28T20:02:50.552Z,64.80
2018-08-28T20:05:19.037Z,65.30
2018-08-28T20:07:47.284Z,66.10
2018-08-28T20:10:15.859Z,66.90
2018-08-28T20:12:44.221Z,67.50
2018-08-28T20:15:12.406Z,68.80
2018-08-28T20:17:40.667Z,69.50
2018-08-28T20:20:08.762Z,70.30
2018-08-28T20:22:36.916Z,71.70
2018-08-28T20:25:05.325Z,72.10
2018-08-28T20:27:33.559Z,72.50
2018-08-28T20:30:01.779Z,72.80
2018-08-28T20:32:31.226Z,73.50
2018-08-28T20:35:00.203Z,73.90
2018-08-28T20:37:28.481Z,73.80
2018-08-28T20:40:03.787Z,74.40
2018-08-28T20:42:32.479Z,73.60
2018-08-28T20:45:00.618Z,73.20
2018-08-28T20:47:30.128Z,75.00
2018-08-28T20:49:58.440Z,75.70
2018-08-28T20:52:26.579Z,76.50
2018-08-28T20:54:54.734Z,76.50
2018-08-28T20:57:22.988Z,77.30
2018-08-28T20:59:51.398Z,76.90
2018-08-28T21:02:19.625Z,77.50
2018-08-28T21:04:48.118Z,77.50
2018-08-28T21:07:23.271Z,78.20
2018-08-28T21:09:51.749Z,78.40
2018-08-28T21:12:19.899Z,78.80
2018-08-28T21:14:47.989Z,79.10
2018-08-28T21:17:16.213Z,78.60
2018-08-28T21:19:52.859Z,78.80
2018-08-28T21:22:28.564Z,78.90
2018-08-28T21:25:00.183Z,78.30
2018-08-28T21:27:30.544Z,78.00
2018-08-28T21:30:00.254Z,78.20
2018-08-28T21:32:28.424Z,78.30
2018-08-28T21:34:56.578Z,78.70
2018-08-28T21:37:24.838Z,78.60
2018-08-28T21:39:52.919Z,78.90
2018-08-28T21:42:21.109Z,79.30
2018-08-28T21:44:49.320Z,79.60
2018-08-28T21:47:17.349Z,80.00
2018-08-28T21:49:45.423Z,80.50
2018-08-28T21:52:13.536Z,80.90
2018-08-28T21:54:42.070Z,80.60
2018-08-28T21:57:10.144Z,80.60
2018-08-28T21:59:38.252Z,80.90
2018-08-28T22:02:06.544Z,81.00
2018-08-28T22:04:34.684Z,81.70
2018-08-28T22:07:08.236Z,82.00
2018-08-28T22:09:36.447Z,81.70
2018-08-28T22:12:04.730Z,81.50
2018-08-28T22:14:32.930Z,81.60
2018-08-28T22:17:01.963Z,81.90
2018-08-28T22:19:30.092Z,82.30
2018-08-28T22:21:58.294Z,82.40
2018-08-28T22:24:26.513Z,83.30
2018-08-28T22:26:54.664Z,83.40
2018-08-28T22:29:22.835Z,83.40
2018-08-28T22:31:51.037Z,83.80
2018-08-28T22:34:19.164Z,83.80
2018-08-28T22:36:47.390Z,84.40
2018-08-28T22:39:15.589Z,84.70
2018-08-28T22:41:43.730Z,85.10
2018-08-28T22:44:11.945Z,85.30
2018-08-28T22:46:40.044Z,84.90
2018-08-28T22:49:08.219Z,84.90
2018-08-28T22:51:36.440Z,85.40
2018-08-28T22:54:04.609Z,85.60
2018-08-28T22:56:32.768Z,85.60
2018-08-28T22:59:01.049Z,85.30
2018-08-28T23:01:29.264Z,85.00
2018-08-28T23:03:57.407Z,84.70
2018-08-28T23:06:25.518Z,84.70
2018-08-28T23:08:53.624Z,84.40
2018-08-28T23:11:21.823Z,83.70
2018-08-28T23:13:50.017Z,84.00
2018-08-28T23:16:18.120Z,83.80
2018-08-28T23:18:46.159Z,83.50
2018-08-28T23:21:14.317Z,83.40
2018-08-28T23:23:42.423Z,83.30
2018-08-28T23:26:10.488Z,83.70
2018-08-28T23:28:38.633Z,84.20
2018-08-28T23:31:06.757Z,84.70
2018-08-28T23:33:35.034Z,84.80
2018-08-28T23:36:03.232Z,85.00
2018-08-28T23:38:31.406Z,85.10
2018-08-28T23:40:59.560Z,85.40
2018-08-28T23:43:27.764Z,85.50
2018-08-28T23:45:55.932Z,85.00
2018-08-28T23:48:24.141Z,84.90
2018-08-28T23:50:52.291Z,84.90
2018-08-28T23:53:20.450Z,84.90
2018-08-28T23:55:48.617Z,85.10
2018-08-28T23:58:16.833Z,85.50
